sensor_id;sensor_type;location;lat;lon;timestamp;P1;durP1;ratioP1;P2;durP2;ratioP2
59424;SDS011;45231;44.826;20.312;2023-03-01T00:00:23;85.20;;;32.08;;
59424;SDS011;45231;44.826;20.312;2023-03-01T00:02:49;108.40;;;38.20;;
59424;SDS011;45231;44.826;20.312;2023-03-01T00:05:16;116.37;;;44.17;;
59424;SDS011;45231;44.826;20.312;2023-03-01T00:07:42;110.20;;;44.92;;
59424;SDS011;45231;44.826;20.312;2023-03-01T00:10:09;101.05;;;39.20;;
59424;SDS011;45231;44.826;20.312;2023-03-01T00:12:35;85.72;;;32.40;;
59424;SDS011;45231;44.826;20.312;2023-03-01T00:15:01;83.15;;;31.38;;
59424;SDS011;45231;44.826;20.312;2023-03-01T00:17:29;80.75;;;29.30;;
59424;SDS011;45231;44.826;20.312;2023-03-01T00:19:56;90.22;;;31.00;;
59424;SDS011;45231;44.826;20.312;2023-03-01T00:22:26;92.05;;;32.22;;
59424;SDS011;45231;44.826;20.312;2023-03-01T00:24:53;145.07;;;36.78;;
59424;SDS011;45231;44.826;20.312;2023-03-01T00:27:23;99.93;;;30.17;;
59424;SDS011;45231;44.826;20.312;2023-03-01T00:29:52;98.65;;;31.83;;
59424;SDS011;45231;44.826;20.312;2023-03-01T00:32:18;89.07;;;31.27;;
59424;SDS011;45231;44.826;20.312;2023-03-01T00:34:56;99.72;;;33.67;;
59424;SDS011;45231;44.826;20.312;2023-03-01T00:37:27;87.03;;;31.13;;
59424;SDS011;45231;44.826;20.312;2023-03-01T00:39:53;86.57;;;30.90;;
59424;SDS011;45231;44.826;20.312;2023-03-01T00:42:19;81.13;;;31.00;;
59424;SDS011;45231;44.826;20.312;2023-03-01T00:44:52;82.95;;;30.02;;
59424;SDS011;45231;44.826;20.312;2023-03-01T00:47:18;99.50;;;33.38;;
59424;SDS011;45231;44.826;20.312;2023-03-01T00:49:44;111.07;;;30.05;;
59424;SDS011;45231;44.826;20.312;2023-03-01T00:52:11;120.28;;;31.50;;
59424;SDS011;45231;44.826;20.312;2023-03-01T00:54:43;101.68;;;30.38;;
59424;SDS011;45231;44.826;20.312;2023-03-01T00:57:09;104.78;;;32.22;;
59424;SDS011;45231;44.826;20.312;2023-03-01T00:59:38;123.47;;;31.27;;
59424;SDS011;45231;44.826;20.312;2023-03-01T01:02:04;126.72;;;33.75;;
59424;SDS011;45231;44.826;20.312;2023-03-01T01:04:30;104.13;;;31.60;;
59424;SDS011;45231;44.826;20.312;2023-03-01T01:06:59;161.52;;;35.15;;
59424;SDS011;45231;44.826;20.312;2023-03-01T01:09:26;127.10;;;36.47;;
59424;SDS011;45231;44.826;20.312;2023-03-01T01:11:52;126.77;;;37.10;;
59424;SDS011;45231;44.826;20.312;2023-03-01T01:14:18;143.63;;;39.43;;
59424;SDS011;45231;44.826;20.312;2023-03-01T01:16:45;124.03;;;39.17;;
59424;SDS011;45231;44.826;20.312;2023-03-01T01:19:11;137.32;;;39.55;;
59424;SDS011;45231;44.826;20.312;2023-03-01T01:24:04;122.95;;;34.92;;
59424;SDS011;45231;44.826;20.312;2023-03-01T01:26:31;124.22;;;37.20;;
59424;SDS011;45231;44.826;20.312;2023-03-01T01:28:59;129.23;;;40.65;;
59424;SDS011;45231;44.826;20.312;2023-03-01T01:31:28;147.57;;;40.42;;
59424;SDS011;45231;44.826;20.312;2023-03-01T01:36:40;187.90;;;45.90;;
59424;SDS011;45231;44.826;20.312;2023-03-01T01:39:06;144.57;;;42.67;;
59424;SDS011;45231;44.826;20.312;2023-03-01T01:41:36;147.13;;;41.63;;
59424;SDS011;45231;44.826;20.312;2023-03-01T01:46:43;144.18;;;40.92;;
59424;SDS011;45231;44.826;20.312;2023-03-01T01:51:40;138.05;;;42.10;;
59424;SDS011;45231;44.826;20.312;2023-03-01T01:54:15;134.77;;;42.63;;
59424;SDS011;45231;44.826;20.312;2023-03-01T01:56:44;125.50;;;43.20;;
59424;SDS011;45231;44.826;20.312;2023-03-01T01:59:21;139.00;;;43.00;;
59424;SDS011;45231;44.826;20.312;2023-03-01T02:01:52;131.07;;;42.13;;
59424;SDS011;45231;44.826;20.312;2023-03-01T02:04:18;128.10;;;43.47;;
59424;SDS011;45231;44.826;20.312;2023-03-01T02:06:51;128.07;;;43.90;;
59424;SDS011;45231;44.826;20.312;2023-03-01T02:09:19;120.18;;;40.53;;
59424;SDS011;45231;44.826;20.312;2023-03-01T02:11:46;127.20;;;43.67;;
59424;SDS011;45231;44.826;20.312;2023-03-01T02:14:14;122.65;;;44.67;;
59424;SDS011;45231;44.826;20.312;2023-03-01T02:16:43;123.68;;;44.13;;
59424;SDS011;45231;44.826;20.312;2023-03-01T02:26:52;101.55;;;42.92;;
59424;SDS011;45231;44.826;20.312;2023-03-01T02:29:20;121.18;;;46.70;;
59424;SDS011;45231;44.826;20.312;2023-03-01T02:31:47;115.80;;;45.25;;
59424;SDS011;45231;44.826;20.312;2023-03-01T02:34:17;109.63;;;45.03;;
59424;SDS011;45231;44.826;20.312;2023-03-01T02:37:05;125.35;;;48.22;;
59424;SDS011;45231;44.826;20.312;2023-03-01T02:39:40;114.25;;;46.03;;
59424;SDS011;45231;44.826;20.312;2023-03-01T02:42:08;112.72;;;46.03;;
59424;SDS011;45231;44.826;20.312;2023-03-01T02:44:42;124.75;;;50.10;;
59424;SDS011;45231;44.826;20.312;2023-03-01T02:47:08;110.53;;;44.08;;
59424;SDS011;45231;44.826;20.312;2023-03-01T02:49:37;112.95;;;48.47;;
59424;SDS011;45231;44.826;20.312;2023-03-01T02:54:40;113.03;;;48.72;;
59424;SDS011;45231;44.826;20.312;2023-03-01T02:57:07;112.15;;;47.58;;
59424;SDS011;45231;44.826;20.312;2023-03-01T02:59:34;118.63;;;48.10;;
59424;SDS011;45231;44.826;20.312;2023-03-01T03:02:07;110.65;;;46.92;;
59424;SDS011;45231;44.826;20.312;2023-03-01T03:04:33;110.55;;;47.78;;
59424;SDS011;45231;44.826;20.312;2023-03-01T03:07:00;116.88;;;48.38;;
59424;SDS011;45231;44.826;20.312;2023-03-01T03:09:29;105.05;;;46.10;;
59424;SDS011;45231;44.826;20.312;2023-03-01T03:12:03;98.32;;;44.75;;
59424;SDS011;45231;44.826;20.312;2023-03-01T03:14:29;118.90;;;48.83;;
59424;SDS011;45231;44.826;20.312;2023-03-01T03:16:59;132.60;;;60.58;;
59424;SDS011;45231;44.826;20.312;2023-03-01T03:19:26;117.03;;;52.22;;
59424;SDS011;45231;44.826;20.312;2023-03-01T03:22:01;104.22;;;47.42;;
59424;SDS011;45231;44.826;20.312;2023-03-01T03:24:30;108.18;;;47.78;;
59424;SDS011;45231;44.826;20.312;2023-03-01T03:27:13;105.65;;;46.17;;
59424;SDS011;45231;44.826;20.312;2023-03-01T03:29:39;112.90;;;48.67;;
59424;SDS011;45231;44.826;20.312;2023-03-01T03:32:05;104.72;;;46.53;;
59424;SDS011;45231;44.826;20.312;2023-03-01T03:34:34;108.70;;;48.03;;
59424;SDS011;45231;44.826;20.312;2023-03-01T03:37:13;104.10;;;47.35;;
59424;SDS011;45231;44.826;20.312;2023-03-01T03:39:59;98.18;;;45.63;;
59424;SDS011;45231;44.826;20.312;2023-03-01T03:45:02;98.57;;;45.63;;
59424;SDS011;45231;44.826;20.312;2023-03-01T03:47:34;101.63;;;47.50;;
59424;SDS011;45231;44.826;20.312;2023-03-01T03:50:04;94.77;;;45.57;;
59424;SDS011;45231;44.826;20.312;2023-03-01T03:52:30;99.03;;;45.90;;
59424;SDS011;45231;44.826;20.312;2023-03-01T03:54:56;94.97;;;45.47;;
59424;SDS011;45231;44.826;20.312;2023-03-01T03:57:22;102.85;;;47.28;;
59424;SDS011;45231;44.826;20.312;2023-03-01T03:59:52;105.85;;;48.13;;
59424;SDS011;45231;44.826;20.312;2023-03-01T04:04:57;91.22;;;43.58;;
59424;SDS011;45231;44.826;20.312;2023-03-01T04:07:23;97.67;;;46.87;;
59424;SDS011;45231;44.826;20.312;2023-03-01T04:09:50;94.13;;;46.08;;
59424;SDS011;45231;44.826;20.312;2023-03-01T04:12:16;99.15;;;45.72;;
59424;SDS011;45231;44.826;20.312;2023-03-01T04:14:48;92.38;;;44.53;;
59424;SDS011;45231;44.826;20.312;2023-03-01T04:17:14;86.05;;;42.78;;
59424;SDS011;45231;44.826;20.312;2023-03-01T04:19:41;91.57;;;45.50;;
59424;SDS011;45231;44.826;20.312;2023-03-01T04:22:14;93.55;;;44.13;;
59424;SDS011;45231;44.826;20.312;2023-03-01T04:24:42;90.43;;;43.70;;
59424;SDS011;45231;44.826;20.312;2023-03-01T04:27:09;85.22;;;42.35;;
59424;SDS011;45231;44.826;20.312;2023-03-01T04:29:35;84.55;;;44.67;;
59424;SDS011;45231;44.826;20.312;2023-03-01T04:32:01;88.57;;;44.58;;
59424;SDS011;45231;44.826;20.312;2023-03-01T04:34:28;78.45;;;41.08;;
59424;SDS011;45231;44.826;20.312;2023-03-01T04:39:23;80.72;;;42.58;;
59424;SDS011;45231;44.826;20.312;2023-03-01T04:41:50;79.63;;;42.67;;
59424;SDS011;45231;44.826;20.312;2023-03-01T04:44:19;82.28;;;44.53;;
59424;SDS011;45231;44.826;20.312;2023-03-01T04:46:45;77.00;;;42.25;;
59424;SDS011;45231;44.826;20.312;2023-03-01T04:49:17;80.35;;;42.55;;
59424;SDS011;45231;44.826;20.312;2023-03-01T04:51:47;75.60;;;40.97;;
59424;SDS011;45231;44.826;20.312;2023-03-01T04:54:13;75.47;;;39.43;;
59424;SDS011;45231;44.826;20.312;2023-03-01T04:56:39;73.93;;;41.35;;
59424;SDS011;45231;44.826;20.312;2023-03-01T04:59:06;70.07;;;40.30;;
59424;SDS011;45231;44.826;20.312;2023-03-01T05:01:33;67.55;;;37.95;;
59424;SDS011;45231;44.826;20.312;2023-03-01T05:06:28;67.93;;;38.72;;
59424;SDS011;45231;44.826;20.312;2023-03-01T05:08:54;68.30;;;38.65;;
59424;SDS011;45231;44.826;20.312;2023-03-01T05:11:20;65.88;;;38.35;;
59424;SDS011;45231;44.826;20.312;2023-03-01T05:13:49;62.40;;;36.77;;
59424;SDS011;45231;44.826;20.312;2023-03-01T05:16:19;70.75;;;39.25;;
59424;SDS011;45231;44.826;20.312;2023-03-01T05:18:46;69.68;;;38.40;;
59424;SDS011;45231;44.826;20.312;2023-03-01T05:21:13;71.75;;;39.50;;
59424;SDS011;45231;44.826;20.312;2023-03-01T05:23:43;74.85;;;43.20;;
59424;SDS011;45231;44.826;20.312;2023-03-01T05:26:09;69.50;;;39.58;;
59424;SDS011;45231;44.826;20.312;2023-03-01T05:28:37;75.43;;;40.83;;
59424;SDS011;45231;44.826;20.312;2023-03-01T05:33:40;78.18;;;44.40;;
59424;SDS011;45231;44.826;20.312;2023-03-01T05:36:07;78.25;;;44.70;;
59424;SDS011;45231;44.826;20.312;2023-03-01T05:38:35;85.55;;;45.45;;
59424;SDS011;45231;44.826;20.312;2023-03-01T05:41:01;84.75;;;45.63;;
59424;SDS011;45231;44.826;20.312;2023-03-01T05:43:30;89.72;;;47.55;;
59424;SDS011;45231;44.826;20.312;2023-03-01T05:45:58;94.88;;;48.00;;
59424;SDS011;45231;44.826;20.312;2023-03-01T05:48:28;79.78;;;44.67;;
59424;SDS011;45231;44.826;20.312;2023-03-01T05:50:54;90.95;;;47.58;;
59424;SDS011;45231;44.826;20.312;2023-03-01T05:53:20;90.43;;;46.30;;
59424;SDS011;45231;44.826;20.312;2023-03-01T05:55:47;87.43;;;45.65;;
59424;SDS011;45231;44.826;20.312;2023-03-01T05:58:15;96.30;;;43.72;;
59424;SDS011;45231;44.826;20.312;2023-03-01T06:00:45;126.15;;;47.17;;
59424;SDS011;45231;44.826;20.312;2023-03-01T06:03:19;123.45;;;45.72;;
59424;SDS011;45231;44.826;20.312;2023-03-01T06:05:46;130.30;;;46.63;;
59424;SDS011;45231;44.826;20.312;2023-03-01T06:08:15;257.20;;;50.90;;
59424;SDS011;45231;44.826;20.312;2023-03-01T06:10:52;218.05;;;46.08;;
59424;SDS011;45231;44.826;20.312;2023-03-01T06:13:22;387.10;;;52.17;;
59424;SDS011;45231;44.826;20.312;2023-03-01T06:15:48;267.20;;;46.00;;
59424;SDS011;45231;44.826;20.312;2023-03-01T06:18:15;328.58;;;49.92;;
59424;SDS011;45231;44.826;20.312;2023-03-01T06:20:41;152.77;;;42.20;;
59424;SDS011;45231;44.826;20.312;2023-03-01T06:23:07;275.27;;;49.13;;
59424;SDS011;45231;44.826;20.312;2023-03-01T06:25:40;258.33;;;46.83;;
59424;SDS011;45231;44.826;20.312;2023-03-01T06:28:06;186.05;;;47.65;;
59424;SDS011;45231;44.826;20.312;2023-03-01T06:30:32;151.03;;;43.87;;
59424;SDS011;45231;44.826;20.312;2023-03-01T06:32:59;247.15;;;49.25;;
59424;SDS011;45231;44.826;20.312;2023-03-01T06:35:28;241.43;;;49.10;;
59424;SDS011;45231;44.826;20.312;2023-03-01T06:38:04;143.23;;;45.08;;
59424;SDS011;45231;44.826;20.312;2023-03-01T06:40:30;131.77;;;43.28;;
59424;SDS011;45231;44.826;20.312;2023-03-01T06:43:00;127.72;;;42.70;;
59424;SDS011;45231;44.826;20.312;2023-03-01T06:45:46;144.10;;;42.03;;
59424;SDS011;45231;44.826;20.312;2023-03-01T06:48:13;134.30;;;40.90;;
59424;SDS011;45231;44.826;20.312;2023-03-01T06:53:58;194.60;;;45.05;;
59424;SDS011;45231;44.826;20.312;2023-03-01T06:56:37;131.82;;;41.58;;
59424;SDS011;45231;44.826;20.312;2023-03-01T06:59:04;122.75;;;41.33;;
59424;SDS011;45231;44.826;20.312;2023-03-01T07:01:31;124.47;;;40.92;;
59424;SDS011;45231;44.826;20.312;2023-03-01T07:03:57;108.97;;;40.42;;
59424;SDS011;45231;44.826;20.312;2023-03-01T07:06:23;111.20;;;39.77;;
59424;SDS011;45231;44.826;20.312;2023-03-01T07:08:49;104.63;;;39.93;;
59424;SDS011;45231;44.826;20.312;2023-03-01T07:11:16;122.30;;;41.20;;
59424;SDS011;45231;44.826;20.312;2023-03-01T07:13:42;129.10;;;40.47;;
59424;SDS011;45231;44.826;20.312;2023-03-01T07:16:08;115.73;;;39.13;;
59424;SDS011;45231;44.826;20.312;2023-03-01T07:18:39;100.38;;;37.53;;
59424;SDS011;45231;44.826;20.312;2023-03-01T07:21:09;114.03;;;40.33;;
59424;SDS011;45231;44.826;20.312;2023-03-01T07:23:38;102.88;;;38.40;;
59424;SDS011;45231;44.826;20.312;2023-03-01T07:26:05;102.97;;;38.10;;
59424;SDS011;45231;44.826;20.312;2023-03-01T07:28:31;83.55;;;30.77;;
59424;SDS011;45231;44.826;20.312;2023-03-01T07:31:05;104.63;;;39.20;;
59424;SDS011;45231;44.826;20.312;2023-03-01T07:33:32;102.38;;;39.58;;
59424;SDS011;45231;44.826;20.312;2023-03-01T07:35:58;115.30;;;41.05;;
59424;SDS011;45231;44.826;20.312;2023-03-01T07:38:25;104.63;;;39.88;;
59424;SDS011;45231;44.826;20.312;2023-03-01T07:43:18;87.68;;;34.53;;
59424;SDS011;45231;44.826;20.312;2023-03-01T07:45:45;113.78;;;39.28;;
59424;SDS011;45231;44.826;20.312;2023-03-01T07:48:11;107.57;;;40.72;;
59424;SDS011;45231;44.826;20.312;2023-03-01T07:50:42;86.60;;;35.30;;
59424;SDS011;45231;44.826;20.312;2023-03-01T07:53:12;89.30;;;36.17;;
59424;SDS011;45231;44.826;20.312;2023-03-01T07:55:38;93.50;;;38.35;;
59424;SDS011;45231;44.826;20.312;2023-03-01T07:58:05;60.35;;;26.13;;
59424;SDS011;45231;44.826;20.312;2023-03-01T08:00:31;96.40;;;38.83;;
59424;SDS011;45231;44.826;20.312;2023-03-01T08:03:00;90.07;;;37.73;;
59424;SDS011;45231;44.826;20.312;2023-03-01T08:05:26;91.20;;;38.08;;
59424;SDS011;45231;44.826;20.312;2023-03-01T08:07:53;84.10;;;37.38;;
59424;SDS011;45231;44.826;20.312;2023-03-01T08:10:19;87.90;;;37.97;;
59424;SDS011;45231;44.826;20.312;2023-03-01T08:12:45;76.28;;;35.72;;
59424;SDS011;45231;44.826;20.312;2023-03-01T08:15:11;78.00;;;35.90;;
59424;SDS011;45231;44.826;20.312;2023-03-01T08:17:43;75.28;;;35.83;;
59424;SDS011;45231;44.826;20.312;2023-03-01T08:20:11;67.47;;;33.83;;
59424;SDS011;45231;44.826;20.312;2023-03-01T08:22:38;59.03;;;30.42;;
59424;SDS011;45231;44.826;20.312;2023-03-01T08:25:04;57.22;;;29.83;;
59424;SDS011;45231;44.826;20.312;2023-03-01T08:27:30;35.40;;;19.33;;
59424;SDS011;45231;44.826;20.312;2023-03-01T08:29:57;22.57;;;13.00;;
59424;SDS011;45231;44.826;20.312;2023-03-01T08:32:23;18.77;;;12.18;;
59424;SDS011;45231;44.826;20.312;2023-03-01T08:34:50;18.75;;;11.77;;
59424;SDS011;45231;44.826;20.312;2023-03-01T08:37:16;18.17;;;11.60;;
59424;SDS011;45231;44.826;20.312;2023-03-01T08:39:42;18.15;;;11.75;;
59424;SDS011;45231;44.826;20.312;2023-03-01T08:42:08;16.58;;;9.30;;
59424;SDS011;45231;44.826;20.312;2023-03-01T08:44:35;16.15;;;10.10;;
59424;SDS011;45231;44.826;20.312;2023-03-01T08:47:04;14.57;;;8.25;;
59424;SDS011;45231;44.826;20.312;2023-03-01T08:49:30;13.35;;;7.45;;
59424;SDS011;45231;44.826;20.312;2023-03-01T08:54:23;12.07;;;6.88;;
59424;SDS011;45231;44.826;20.312;2023-03-01T08:56:50;15.65;;;9.85;;
59424;SDS011;45231;44.826;20.312;2023-03-01T08:59:16;18.02;;;8.88;;
59424;SDS011;45231;44.826;20.312;2023-03-01T09:01:43;14.48;;;8.73;;
59424;SDS011;45231;44.826;20.312;2023-03-01T09:04:10;15.50;;;9.07;;
59424;SDS011;45231;44.826;20.312;2023-03-01T09:06:36;12.43;;;7.82;;
59424;SDS011;45231;44.826;20.312;2023-03-01T09:09:03;11.20;;;6.28;;
59424;SDS011;45231;44.826;20.312;2023-03-01T09:13:56;13.88;;;8.50;;
59424;SDS011;45231;44.826;20.312;2023-03-01T09:16:22;14.70;;;7.80;;
59424;SDS011;45231;44.826;20.312;2023-03-01T09:18:49;11.60;;;6.93;;
59424;SDS011;45231;44.826;20.312;2023-03-01T09:21:16;15.05;;;9.57;;
59424;SDS011;45231;44.826;20.312;2023-03-01T09:29:21;13.38;;;6.78;;
59424;SDS011;45231;44.826;20.312;2023-03-01T09:31:48;11.45;;;6.45;;
59424;SDS011;45231;44.826;20.312;2023-03-01T09:34:14;10.30;;;5.93;;
59424;SDS011;45231;44.826;20.312;2023-03-01T09:36:45;10.18;;;5.22;;
59424;SDS011;45231;44.826;20.312;2023-03-01T09:39:12;9.38;;;5.15;;
59424;SDS011;45231;44.826;20.312;2023-03-01T09:41:49;8.50;;;5.10;;
59424;SDS011;45231;44.826;20.312;2023-03-01T09:44:18;10.48;;;6.20;;
59424;SDS011;45231;44.826;20.312;2023-03-01T09:46:47;10.10;;;6.20;;
59424;SDS011;45231;44.826;20.312;2023-03-01T09:49:21;9.25;;;5.43;;
59424;SDS011;45231;44.826;20.312;2023-03-01T09:52:00;10.57;;;5.35;;
59424;SDS011;45231;44.826;20.312;2023-03-01T09:54:29;9.88;;;6.18;;
59424;SDS011;45231;44.826;20.312;2023-03-01T10:02:33;9.35;;;5.00;;
59424;SDS011;45231;44.826;20.312;2023-03-01T10:12:44;11.65;;;6.63;;
59424;SDS011;45231;44.826;20.312;2023-03-01T10:15:22;12.98;;;6.15;;
59424;SDS011;45231;44.826;20.312;2023-03-01T10:17:52;11.98;;;6.95;;
59424;SDS011;45231;44.826;20.312;2023-03-01T10:20:22;16.80;;;7.38;;
59424;SDS011;45231;44.826;20.312;2023-03-01T10:22:49;10.70;;;5.78;;
59424;SDS011;45231;44.826;20.312;2023-03-01T10:30:39;16.85;;;8.90;;
59424;SDS011;45231;44.826;20.312;2023-03-01T10:33:26;10.43;;;6.35;;
59424;SDS011;45231;44.826;20.312;2023-03-01T10:35:53;8.82;;;5.25;;
59424;SDS011;45231;44.826;20.312;2023-03-01T10:38:19;11.97;;;6.67;;
59424;SDS011;45231;44.826;20.312;2023-03-01T10:40:55;7.53;;;4.90;;
59424;SDS011;45231;44.826;20.312;2023-03-01T10:43:25;7.82;;;5.10;;
59424;SDS011;45231;44.826;20.312;2023-03-01T10:45:52;8.48;;;5.55;;
59424;SDS011;45231;44.826;20.312;2023-03-01T10:48:19;8.15;;;5.22;;
59424;SDS011;45231;44.826;20.312;2023-03-01T10:51:04;12.68;;;4.90;;
59424;SDS011;45231;44.826;20.312;2023-03-01T10:53:43;8.50;;;4.88;;
59424;SDS011;45231;44.826;20.312;2023-03-01T10:56:14;8.20;;;4.32;;
59424;SDS011;45231;44.826;20.312;2023-03-01T11:03:41;10.95;;;5.95;;
59424;SDS011;45231;44.826;20.312;2023-03-01T11:08:35;9.77;;;6.43;;
59424;SDS011;45231;44.826;20.312;2023-03-01T11:11:05;8.30;;;5.00;;
59424;SDS011;45231;44.826;20.312;2023-03-01T11:13:32;8.75;;;5.53;;
59424;SDS011;45231;44.826;20.312;2023-03-01T11:15:59;7.23;;;4.40;;
59424;SDS011;45231;44.826;20.312;2023-03-01T11:18:25;7.40;;;4.07;;
59424;SDS011;45231;44.826;20.312;2023-03-01T11:20:52;7.85;;;4.38;;
59424;SDS011;45231;44.826;20.312;2023-03-01T11:23:19;8.20;;;4.75;;
59424;SDS011;45231;44.826;20.312;2023-03-01T11:25:50;7.57;;;3.90;;
59424;SDS011;45231;44.826;20.312;2023-03-01T11:28:17;7.93;;;4.68;;
59424;SDS011;45231;44.826;20.312;2023-03-01T11:30:48;8.20;;;4.50;;
59424;SDS011;45231;44.826;20.312;2023-03-01T11:38:26;8.70;;;4.80;;
59424;SDS011;45231;44.826;20.312;2023-03-01T11:46:21;7.87;;;4.90;;
59424;SDS011;45231;44.826;20.312;2023-03-01T11:48:58;7.82;;;3.55;;
59424;SDS011;45231;44.826;20.312;2023-03-01T11:56:28;9.07;;;5.88;;
59424;SDS011;45231;44.826;20.312;2023-03-01T12:04:18;11.68;;;5.35;;
59424;SDS011;45231;44.826;20.312;2023-03-01T12:06:55;11.65;;;5.25;;
59424;SDS011;45231;44.826;20.312;2023-03-01T12:17:32;10.25;;;5.32;;
59424;SDS011;45231;44.826;20.312;2023-03-01T12:20:03;8.05;;;4.57;;
59424;SDS011;45231;44.826;20.312;2023-03-01T12:23:25;10.45;;;5.00;;
59424;SDS011;45231;44.826;20.312;2023-03-01T12:37:49;13.98;;;7.85;;
59424;SDS011;45231;44.826;20.312;2023-03-01T12:45:59;14.95;;;6.03;;
59424;SDS011;45231;44.826;20.312;2023-03-01T12:48:50;9.35;;;5.50;;
59424;SDS011;45231;44.826;20.312;2023-03-01T12:51:23;11.02;;;6.20;;
59424;SDS011;45231;44.826;20.312;2023-03-01T12:53:53;13.25;;;6.60;;
59424;SDS011;45231;44.826;20.312;2023-03-01T12:56:24;9.10;;;5.18;;
59424;SDS011;45231;44.826;20.312;2023-03-01T13:11:35;14.45;;;7.15;;
59424;SDS011;45231;44.826;20.312;2023-03-01T13:16:44;12.98;;;7.40;;
59424;SDS011;45231;44.826;20.312;2023-03-01T13:19:17;12.70;;;5.97;;
59424;SDS011;45231;44.826;20.312;2023-03-01T13:21:45;13.00;;;5.75;;
59424;SDS011;45231;44.826;20.312;2023-03-01T13:27:08;6.90;;;3.42;;
59424;SDS011;45231;44.826;20.312;2023-03-01T13:29:26;11.40;;;4.60;;
59424;SDS011;45231;44.826;20.312;2023-03-01T13:37:09;9.65;;;5.70;;
59424;SDS011;45231;44.826;20.312;2023-03-01T13:39:44;12.35;;;5.40;;
59424;SDS011;45231;44.826;20.312;2023-03-01T13:44:55;10.40;;;6.28;;
59424;SDS011;45231;44.826;20.312;2023-03-01T13:47:21;10.57;;;6.27;;
59424;SDS011;45231;44.826;20.312;2023-03-01T13:49:57;11.90;;;7.20;;
59424;SDS011;45231;44.826;20.312;2023-03-01T13:54:58;8.90;;;5.30;;
59424;SDS011;45231;44.826;20.312;2023-03-01T13:57:28;10.73;;;5.57;;
59424;SDS011;45231;44.826;20.312;2023-03-01T13:59:57;10.38;;;5.97;;
59424;SDS011;45231;44.826;20.312;2023-03-01T14:02:23;10.40;;;5.70;;
59424;SDS011;45231;44.826;20.312;2023-03-01T14:04:55;10.68;;;6.10;;
59424;SDS011;45231;44.826;20.312;2023-03-01T14:07:22;9.65;;;5.70;;
59424;SDS011;45231;44.826;20.312;2023-03-01T14:10:02;12.65;;;6.10;;
59424;SDS011;45231;44.826;20.312;2023-03-01T14:12:44;9.90;;;5.85;;
59424;SDS011;45231;44.826;20.312;2023-03-01T14:15:15;9.43;;;6.20;;
59424;SDS011;45231;44.826;20.312;2023-03-01T14:20:21;11.05;;;6.40;;
59424;SDS011;45231;44.826;20.312;2023-03-01T14:22:48;15.80;;;7.97;;
59424;SDS011;45231;44.826;20.312;2023-03-01T14:25:23;22.10;;;12.18;;
59424;SDS011;45231;44.826;20.312;2023-03-01T14:27:58;18.10;;;10.68;;
59424;SDS011;45231;44.826;20.312;2023-03-01T14:30:32;10.55;;;7.05;;
59424;SDS011;45231;44.826;20.312;2023-03-01T14:32:59;14.38;;;7.18;;
59424;SDS011;45231;44.826;20.312;2023-03-01T14:35:30;15.57;;;8.93;;
59424;SDS011;45231;44.826;20.312;2023-03-01T14:37:56;13.38;;;8.77;;
59424;SDS011;45231;44.826;20.312;2023-03-01T14:40:28;13.15;;;8.07;;
59424;SDS011;45231;44.826;20.312;2023-03-01T14:42:55;13.35;;;8.52;;
59424;SDS011;45231;44.826;20.312;2023-03-01T14:47:47;13.07;;;7.90;;
59424;SDS011;45231;44.826;20.312;2023-03-01T14:50:21;14.70;;;8.77;;
59424;SDS011;45231;44.826;20.312;2023-03-01T14:52:48;20.63;;;11.13;;
59424;SDS011;45231;44.826;20.312;2023-03-01T14:55:16;19.25;;;10.15;;
59424;SDS011;45231;44.826;20.312;2023-03-01T14:57:44;15.18;;;9.43;;
59424;SDS011;45231;44.826;20.312;2023-03-01T15:00:13;14.00;;;8.65;;
59424;SDS011;45231;44.826;20.312;2023-03-01T15:02:42;13.43;;;8.35;;
59424;SDS011;45231;44.826;20.312;2023-03-01T15:05:09;15.65;;;10.05;;
59424;SDS011;45231;44.826;20.312;2023-03-01T15:07:37;17.58;;;9.95;;
59424;SDS011;45231;44.826;20.312;2023-03-01T15:10:05;18.95;;;10.23;;
59424;SDS011;45231;44.826;20.312;2023-03-01T15:14:57;17.77;;;10.80;;
59424;SDS011;45231;44.826;20.312;2023-03-01T15:19:56;17.13;;;11.35;;
59424;SDS011;45231;44.826;20.312;2023-03-01T15:22:22;18.23;;;11.00;;
59424;SDS011;45231;44.826;20.312;2023-03-01T15:24:49;16.95;;;10.15;;
59424;SDS011;45231;44.826;20.312;2023-03-01T15:27:16;13.80;;;9.18;;
59424;SDS011;45231;44.826;20.312;2023-03-01T15:29:54;15.10;;;9.02;;
59424;SDS011;45231;44.826;20.312;2023-03-01T15:32:26;18.13;;;11.45;;
59424;SDS011;45231;44.826;20.312;2023-03-01T15:34:52;17.80;;;10.70;;
59424;SDS011;45231;44.826;20.312;2023-03-01T15:40:17;16.80;;;9.82;;
59424;SDS011;45231;44.826;20.312;2023-03-01T15:42:43;16.13;;;10.90;;
59424;SDS011;45231;44.826;20.312;2023-03-01T15:50:34;14.13;;;8.98;;
59424;SDS011;45231;44.826;20.312;2023-03-01T15:53:12;17.08;;;10.27;;
59424;SDS011;45231;44.826;20.312;2023-03-01T15:55:42;21.73;;;10.05;;
59424;SDS011;45231;44.826;20.312;2023-03-01T15:58:16;16.98;;;10.65;;
59424;SDS011;45231;44.826;20.312;2023-03-01T16:00:49;19.70;;;10.77;;
59424;SDS011;45231;44.826;20.312;2023-03-01T16:03:21;18.10;;;10.02;;
59424;SDS011;45231;44.826;20.312;2023-03-01T16:05:47;19.38;;;11.30;;
59424;SDS011;45231;44.826;20.312;2023-03-01T16:08:15;18.80;;;11.35;;
59424;SDS011;45231;44.826;20.312;2023-03-01T16:10:41;21.10;;;11.25;;
59424;SDS011;45231;44.826;20.312;2023-03-01T16:13:17;20.27;;;11.85;;
59424;SDS011;45231;44.826;20.312;2023-03-01T16:15:45;21.80;;;12.63;;
59424;SDS011;45231;44.826;20.312;2023-03-01T16:18:12;22.17;;;13.00;;
59424;SDS011;45231;44.826;20.312;2023-03-01T16:20:38;22.48;;;12.73;;
59424;SDS011;45231;44.826;20.312;2023-03-01T16:23:06;17.58;;;10.57;;
59424;SDS011;45231;44.826;20.312;2023-03-01T16:25:33;27.00;;;13.93;;
59424;SDS011;45231;44.826;20.312;2023-03-01T16:27:59;19.95;;;12.80;;
59424;SDS011;45231;44.826;20.312;2023-03-01T16:30:29;21.15;;;12.30;;
59424;SDS011;45231;44.826;20.312;2023-03-01T16:35:33;18.08;;;11.50;;
59424;SDS011;45231;44.826;20.312;2023-03-01T16:38:05;16.95;;;10.23;;
59424;SDS011;45231;44.826;20.312;2023-03-01T16:41:17;19.27;;;11.10;;
59424;SDS011;45231;44.826;20.312;2023-03-01T16:43:20;24.38;;;12.80;;
59424;SDS011;45231;44.826;20.312;2023-03-01T16:45:55;20.77;;;12.95;;
59424;SDS011;45231;44.826;20.312;2023-03-01T16:48:21;19.58;;;13.13;;
59424;SDS011;45231;44.826;20.312;2023-03-01T16:50:58;24.58;;;14.20;;
59424;SDS011;45231;44.826;20.312;2023-03-01T16:53:25;23.70;;;14.38;;
59424;SDS011;45231;44.826;20.312;2023-03-01T16:55:55;28.92;;;15.73;;
59424;SDS011;45231;44.826;20.312;2023-03-01T16:58:24;36.63;;;19.17;;
59424;SDS011;45231;44.826;20.312;2023-03-01T17:00:54;25.33;;;14.77;;
59424;SDS011;45231;44.826;20.312;2023-03-01T17:03:21;25.00;;;13.23;;
59424;SDS011;45231;44.826;20.312;2023-03-01T17:05:48;29.88;;;15.50;;
59424;SDS011;45231;44.826;20.312;2023-03-01T17:08:21;22.48;;;13.70;;
59424;SDS011;45231;44.826;20.312;2023-03-01T17:11:01;29.60;;;14.02;;
59424;SDS011;45231;44.826;20.312;2023-03-01T17:13:30;24.17;;;12.93;;